首页
METAR-TAF:

METAR-TAF

机场 :

薩尼亞, 安大略省, 加拿大

纬度: 43-00N, 经度: 082-19W, 海拔: 181米

当前天气观测

该预报发布于44分钟前的07:00 UTC
风速9节,风向,有时为15节阵风
温度 18°C
湿度 68%
气压 1015 hPa
能見度: 14.5公里
天空无云

METAR: CYZR 230700Z AUTO 36009G15KT 9SM CLR 18/12 A2998 RMK SLP153 DENSITY ALT 1000FT

时间: 03:44 (07:44 UTC)

预报

该预报发布于7小时和28分钟前的00:16 UTC
预报有效从23日的 00点(UTC)到 23日的 02点(UTC)
风速12节,风向
能見度: 10公里
天空无云

TAF: CYZR 230016Z 2300/2302 01012KT P6SM SKC RMK FCST BASED ON AUTO OBS. NXT FCST WILL BE ISSUED AT 230745Z

超过4000个机场的气象观测和天气预报(METAR&TAF报告)。

可查询的气象台以黄色和红色小点在地图上表示。

将鼠标移到小点上方,可查看气象台名称。

然后点击查看天气观测和预报。

如需切换地图:点击带黑十字的绿色按钮放大地图;点击带横线的绿色按钮缩小地图;或者点击绿色箭头查看邻近地区的地图。


METAR-TAF: